バミューダ国際空港の過去48時間の天気

バミューダ国際空港 (Bermuda)

現在時刻: 9/22 18:26 ADT (9/22 21:26 UTC) 以下の時間は現地時間です。

過去48時間のMETAR気象情報
時間 風向 風速(m/s) 視程 気温(℃) 湿度(%) 気圧(hPa) 天気現象
22 17:55 6 10km以上 25 69 1020
22 16:55 5 10km以上 26 61 1020
22 15:55 東北東 6 10km以上 26 61 1020
22 14:55 6 10km以上 26 61 1021
22 13:55 6 10km以上 27 58 1022
22 12:55 6 10km以上 26 61 1022
22 11:55 6 10km以上 26 58 1022
22 10:55 東北東 6 10km以上 26 58 1023
22 09:55 6 10km以上 25 61 1023
22 08:55 東北東 5 10km以上 24 65 1023
22 07:55 東北東 4 10km以上 23 69 1022
22 06:55 東北東 4 10km以上 23 65 1022
22 05:55 東北東 5 10km以上 23 65 1021
22 04:55 北東 5 10km以上 23 65 1022
22 03:55 北東 4 10km以上 23 65 1022
22 02:55 北東 4 10km以上 23 65 1022
22 01:55 北東 3 10km以上 23 65 1022
22 00:55 北東 3 10km以上 23 65 1022
21 23:55 東北東 3 10km以上 23 69 1023
21 22:55 東北東 3 10km以上 24 65 1023
21 21:55 北東 4 10km以上 24 65 1023
21 20:55 北東 3 10km以上 24 61 1023
21 19:55 北東 3 10km以上 24 61 1023
21 18:55 東北東 4 10km以上 24 57 1022
21 17:55 東北東 4 10km以上 25 54 1022
21 16:55 東北東 4 10km以上 25 54 1022
21 15:55 東北東 4 10km以上 25 57 1022
21 14:55 北東 5 10km以上 26 51 1022
21 13:55 北北東 5 10km以上 26 51 1023
21 12:55 北北東 5 10km以上 26 51 1023
21 11:55 北東 5 10km以上 26 51 1024
21 10:55 北北東 5 10km以上 26 51 1024
21 09:55 北北東 5 10km以上 25 54 1024
21 08:55 北北東 4 10km以上 24 61 1024
21 07:55 北北東 5 10km以上 23 61 1023
21 06:55 北北東 6 10km以上 23 61 1022
21 05:55 6 10km以上 23 61 1022
21 04:55 5 10km以上 23 61 1022
21 03:55 7 10km以上 23 61 1022
21 02:55 6 10km以上 23 57 1022
21 01:55 6 10km以上 23 61 1022
21 00:55 5 10km以上 23 61 1022
20 23:55 4 10km以上 23 65 1022
20 22:55 5 10km以上 24 61 1022
20 21:55 5 10km以上 24 61 1022
20 20:55 4 10km以上 24 61 1022
20 19:55 5 10km以上 24 65 1021
20 18:55 5 10km以上 24 61 1021
TXKF 222055Z 09011KT 060V120 9999 FEW033 BKN300 25/19 Q1020
TXKF 221955Z 08010KT 9999 FEW033 BKN300 26/18 Q1020
TXKF 221855Z 07011KT 9999 SCT033 BKN300 26/18 Q1020
TXKF 221755Z 08012KT 9999 SCT033 BKN300 26/18 Q1021
TXKF 221655Z 08011KT 050V110 9999 SCT035 BKN300 27/18 Q1022
TXKF 221555Z 08012KT 9999 FEW035 BKN300 26/18 Q1022
TXKF 221455Z 08011KT 9999 FEW035 BKN300 26/17 Q1022
TXKF 221355Z 07011KT 9999 SCT035 BKN300 26/17 Q1023
TXKF 221255Z 08012KT 9999 SCT035 BKN300 25/17 Q1023
TXKF 221155Z 07009KT 040V100 9999 SCT033 BKN300 24/17 Q1023
TXKF 221055Z 07008KT 9999 FEW033 BKN300 23/17 Q1022
TXKF 220955Z 06007KT 030V090 9999 FEW035 BKN300 23/16 Q1022
TXKF 220855Z 06009KT 9999 FEW035 BKN300 23/16 Q1021
TXKF 220755Z 04009KT 9999 SCT036 BKN300 23/16 Q1022
TXKF 220655Z 05007KT 9999 SCT036 BKN300 23/16 Q1022
TXKF 220555Z 04007KT 9999 FEW037 SCT300 23/16 Q1022
TXKF 220455Z 04005KT 9999 FEW037 BKN300 23/16 Q1022
TXKF 220355Z 05006KT 9999 FEW036 BKN300 23/16 Q1022
TXKF 220255Z 06006KT 9999 FEW037 BKN300 23/17 Q1023
TXKF 220155Z 06006KT 9999 FEW037 SCT300 24/17 Q1023
TXKF 220055Z 04007KT 9999 SCT038 SCT300 24/17 Q1023
TXKF 212355Z 04006KT 9999 FEW038 SCT300 24/16 Q1023
TXKF 212255Z 04006KT 9999 FEW040 BKN300 24/16 Q1023
TXKF 212155Z 06007KT 9999 FEW040 BKN300 24/15 Q1022
TXKF 212055Z 06007KT 9999 FEW043 SCT300 25/15 Q1022
TXKF 211955Z 06007KT 9999 FEW043 BKN300 25/15 Q1022
TXKF 211855Z 06008KT 030V090 9999 SCT043 BKN300 25/16 Q1022
TXKF 211755Z 05009KT 010V080 9999 FEW043 SCT300 26/15 Q1022
TXKF 211655Z 03009KT 360V060 9999 FEW045 SCT300 26/15 Q1023
TXKF 211555Z 03009KT 9999 FEW045 SCT300 26/15 Q1023
TXKF 211455Z 04010KT 010V070 9999 SCT045 BKN300 26/15 Q1024
TXKF 211355Z 03009KT 010V070 9999 SCT045 BKN300 26/15 Q1024
TXKF 211255Z 03010KT 350V050 9999 SCT042 BKN300 25/15 Q1024
TXKF 211155Z 03008KT 350V060 9999 SCT040 BKN300 24/16 Q1024
TXKF 211055Z 03009KT 360V060 9999 FEW038 BKN300 23/15 Q1023
TXKF 210955Z 02011KT 350V050 9999 FEW035 BKN300 23/15 Q1022
TXKF 210855Z 01011KT 9999 FEW035 BKN300 23/15 Q1022
TXKF 210755Z 01010KT 9999 FEW035 BKN300 23/15 Q1022
TXKF 210655Z 01013KT 9999 FEW032 BKN300 23/15 Q1022
TXKF 210555Z 36011KT 9999 FEW035 BKN300 23/14 Q1022
TXKF 210455Z 36012KT 9999 FEW035 BKN300 23/15 Q1022
TXKF 210355Z 01010KT 9999 FEW035 BKN300 23/15 Q1022
TXKF 210255Z 01008KT 9999 FEW038 BKN300 23/16 Q1022
TXKF 210155Z 01010KT 9999 FEW037 BKN300 24/16 Q1022
TXKF 210055Z 36010KT 330V040 9999 FEW037 FEW140 BKN300 24/16 Q1022
TXKF 202355Z 36008KT 9999 FEW037 BKN140 BKN300 24/16 Q1022
TXKF 202255Z 36010KT 9999 SCT038 SCT060 SCT140 BKN300 24/17 Q1021
TXKF 202155Z 35010KT 320V020 9999 FEW036 SCT060 BKN160 BKN300 24/16 Q1021